createdAt,value
2023-01-18T00:01:12.404Z,5.35
2023-01-18T00:03:39.825Z,4.93
2023-01-18T00:06:07.864Z,5.28
2023-01-18T00:08:36.290Z,5.40
2023-01-18T00:11:04.092Z,5.18
2023-01-18T00:13:30.791Z,6.28
2023-01-18T00:16:05.887Z,5.32
2023-01-18T00:18:33.114Z,5.20
2023-01-18T00:21:04.187Z,5.32
2023-01-18T00:23:30.966Z,5.18
2023-01-18T00:26:06.512Z,5.20
2023-01-18T00:28:33.594Z,5.00
2023-01-18T00:31:00.358Z,5.40
2023-01-18T00:33:28.307Z,5.20
2023-01-18T00:35:59.798Z,5.68
2023-01-18T00:40:53.721Z,5.20
2023-01-18T00:43:39.274Z,6.10
2023-01-18T00:46:11.214Z,6.18
2023-01-18T00:48:39.810Z,5.53
2023-01-18T00:51:08.998Z,5.55
2023-01-18T00:53:36.603Z,5.47
2023-01-18T00:56:03.491Z,5.50
2023-01-18T00:58:30.581Z,5.85
2023-01-18T01:00:57.435Z,6.32
2023-01-18T01:03:24.142Z,5.35
2023-01-18T01:06:09.427Z,5.90
2023-01-18T01:08:36.134Z,5.47
2023-01-18T01:11:13.078Z,6.00
2023-01-18T01:13:58.284Z,5.85
2023-01-18T01:16:43.650Z,5.40
2023-01-18T01:19:28.924Z,5.78
2023-01-18T01:22:14.324Z,4.95
2023-01-18T01:24:59.641Z,5.55
2023-01-18T01:27:26.555Z,5.22
2023-01-18T01:29:53.299Z,4.93
2023-01-18T01:32:19.986Z,5.40
2023-01-18T01:34:46.758Z,4.85
2023-01-18T01:37:13.435Z,4.97
2023-01-18T01:39:40.111Z,5.20
2023-01-18T01:42:10.309Z,4.85
2023-01-18T01:44:42.100Z,4.13
2023-01-18T01:47:25.747Z,5.55
2023-01-18T01:49:56.472Z,4.85
2023-01-18T01:52:28.705Z,4.57
2023-01-18T01:55:12.099Z,4.60
2023-01-18T01:57:44.750Z,5.28
2023-01-18T02:00:14.499Z,3.75
2023-01-18T02:02:44.255Z,4.70
2023-01-18T02:05:13.728Z,4.82
2023-01-18T02:07:40.599Z,4.85
2023-01-18T02:10:08.328Z,4.88
2023-01-18T02:12:38.940Z,4.97
2023-01-18T02:15:06.677Z,4.75
2023-01-18T02:18:11.733Z,4.65
2023-01-18T02:20:44.401Z,5.13
2023-01-18T02:23:35.108Z,5.25
2023-01-18T02:26:26.768Z,4.47
2023-01-18T02:31:28.805Z,4.85
2023-01-18T02:34:13.674Z,5.00
2023-01-18T02:37:06.673Z,4.75
2023-01-18T02:39:51.983Z,5.25
2023-01-18T02:42:40.008Z,5.05
2023-01-18T02:45:37.370Z,5.07
2023-01-18T02:48:04.550Z,4.70
2023-01-18T02:50:31.470Z,4.97
2023-01-18T02:52:58.407Z,5.22
2023-01-18T02:55:27.968Z,5.43
2023-01-18T02:58:09.824Z,5.55
2023-01-18T03:00:39.424Z,6.20
2023-01-18T03:03:13.854Z,5.30
2023-01-18T03:05:43.362Z,5.30
2023-01-18T03:08:32.775Z,5.53
2023-01-18T03:11:03.123Z,5.50
2023-01-18T03:13:36.404Z,4.90
2023-01-18T03:16:12.076Z,5.40
2023-01-18T03:19:03.188Z,4.95
2023-01-18T03:21:32.522Z,5.50
2023-01-18T03:24:04.555Z,4.95
2023-01-18T03:26:35.676Z,5.15
2023-01-18T03:29:23.021Z,5.32
2023-01-18T03:32:10.418Z,5.40
2023-01-18T03:35:10.564Z,4.57
2023-01-18T03:37:40.759Z,4.90
2023-01-18T03:40:12.243Z,5.85
2023-01-18T03:45:27.864Z,5.20
2023-01-18T03:47:54.794Z,5.40
2023-01-18T03:50:41.975Z,5.53
2023-01-18T03:53:14.746Z,5.32
2023-01-18T03:55:47.178Z,6.15
2023-01-18T03:58:19.354Z,6.28
2023-01-18T04:00:46.426Z,6.20
2023-01-18T04:03:13.391Z,6.63
2023-01-18T04:05:40.242Z,6.53
2023-01-18T04:08:06.963Z,6.32
2023-01-18T04:10:33.777Z,6.07
2023-01-18T04:13:00.964Z,6.30
2023-01-18T04:15:28.002Z,6.60
2023-01-18T04:17:55.972Z,5.97
2023-01-18T04:20:23.860Z,6.93
2023-01-18T04:22:54.633Z,6.93
2023-01-18T04:25:21.903Z,7.38
2023-01-18T04:27:48.692Z,6.40
2023-01-18T04:30:15.781Z,6.78
2023-01-18T04:32:42.928Z,6.97
2023-01-18T04:35:10.242Z,6.60
2023-01-18T04:37:38.295Z,6.70
2023-01-18T04:40:06.719Z,6.88
2023-01-18T04:42:33.501Z,6.45
2023-01-18T04:45:00.695Z,7.30
2023-01-18T04:47:31.244Z,6.78
2023-01-18T04:49:58.041Z,6.27
2023-01-18T04:52:26.763Z,6.70
2023-01-18T04:54:53.566Z,6.70
2023-01-18T04:57:20.353Z,6.20
2023-01-18T04:59:47.010Z,6.47
2023-01-18T05:02:15.471Z,6.60
2023-01-18T05:04:43.722Z,8.10
2023-01-18T05:07:11.258Z,7.18
2023-01-18T05:09:38.039Z,6.97
2023-01-18T05:12:05.014Z,6.93
2023-01-18T05:14:31.682Z,7.72
2023-01-18T05:16:58.413Z,7.03
2023-01-18T05:19:30.677Z,6.85
2023-01-18T05:21:57.414Z,7.13
2023-01-18T05:24:24.360Z,7.90
2023-01-18T05:26:51.141Z,7.90
2023-01-18T05:29:18.075Z,7.40
2023-01-18T05:31:44.986Z,7.60
2023-01-18T05:34:11.968Z,8.60
2023-01-18T05:36:38.701Z,8.60
2023-01-18T05:39:05.736Z,9.10
2023-01-18T05:41:32.421Z,8.80
2023-01-18T05:43:59.120Z,9.40
2023-01-18T05:46:28.785Z,8.18
2023-01-18T05:48:58.940Z,8.82
2023-01-18T05:51:25.677Z,9.30
2023-01-18T05:53:52.338Z,7.78
2023-01-18T05:56:19.034Z,7.80
2023-01-18T05:58:46.349Z,8.25
2023-01-18T06:01:13.824Z,7.45
2023-01-18T06:03:41.010Z,8.00
2023-01-18T06:06:08.822Z,8.02
2023-01-18T06:08:35.768Z,7.85
2023-01-18T06:11:02.739Z,7.78
2023-01-18T06:13:33.585Z,8.02
2023-01-18T06:16:01.039Z,8.52
2023-01-18T06:18:30.011Z,8.50
2023-01-18T06:21:00.978Z,8.82
2023-01-18T06:25:56.226Z,8.40
2023-01-18T06:28:22.943Z,9.18
2023-01-18T06:30:52.894Z,9.77
2023-01-18T06:33:19.567Z,9.27
2023-01-18T06:35:46.274Z,8.85
2023-01-18T06:38:14.087Z,9.43
2023-01-18T06:40:41.060Z,9.02
2023-01-18T06:43:10.288Z,8.85
2023-01-18T06:45:37.063Z,8.98
2023-01-18T06:48:04.692Z,8.70
2023-01-18T06:50:31.471Z,10.05
2023-01-18T06:52:58.443Z,9.55
2023-01-18T06:55:25.458Z,10.82
2023-01-18T06:57:52.128Z,10.35
2023-01-18T07:00:19.298Z,10.38
2023-01-18T07:02:45.959Z,9.20
2023-01-18T07:05:12.715Z,9.85
2023-01-18T07:07:39.410Z,9.10
2023-01-18T07:10:06.551Z,9.18
2023-01-18T07:12:33.307Z,9.27
2023-01-18T07:15:04.860Z,8.80
2023-01-18T07:17:36.567Z,8.73
2023-01-18T07:20:03.460Z,9.85
2023-01-18T07:22:30.145Z,8.90
2023-01-18T07:24:57.135Z,8.98
2023-01-18T07:27:23.791Z,9.15
2023-01-18T07:29:50.461Z,8.80
2023-01-18T07:32:17.285Z,9.13
2023-01-18T07:34:43.969Z,9.45
2023-01-18T07:37:10.656Z,9.75
2023-01-18T07:39:37.343Z,9.38
2023-01-18T07:42:04.939Z,9.82
2023-01-18T07:44:31.731Z,10.15
2023-01-18T07:46:58.635Z,9.18
2023-01-18T07:49:25.335Z,9.50
2023-01-18T07:51:52.006Z,9.00
2023-01-18T07:54:19.172Z,8.75
2023-01-18T07:56:45.884Z,9.15
2023-01-18T07:59:12.578Z,8.77
2023-01-18T08:01:39.339Z,10.40
2023-01-18T08:04:06.102Z,10.15
2023-01-18T08:06:32.788Z,9.82
2023-01-18T08:08:59.735Z,9.80
2023-01-18T08:11:26.497Z,10.00
2023-01-18T08:13:53.235Z,9.63
2023-01-18T08:16:20.132Z,9.88
2023-01-18T08:18:49.725Z,10.15
2023-01-18T08:21:16.569Z,10.20
2023-01-18T08:23:43.313Z,9.63
2023-01-18T08:26:10.800Z,10.10
2023-01-18T08:28:37.571Z,10.18
2023-01-18T08:31:10.622Z,9.90
2023-01-18T08:33:48.831Z,10.10
2023-01-18T08:36:22.139Z,9.82
2023-01-18T08:38:50.784Z,9.95
2023-01-18T08:41:18.995Z,9.77
2023-01-18T08:43:50.717Z,10.00
2023-01-18T08:46:17.475Z,11.05
2023-01-18T08:48:44.187Z,10.13
2023-01-18T08:51:11.469Z,10.55
2023-01-18T08:53:38.330Z,10.45
2023-01-18T08:56:06.790Z,10.40
2023-01-18T08:58:33.898Z,9.70
2023-01-18T09:01:05.210Z,9.75
2023-01-18T09:03:31.985Z,10.13
2023-01-18T09:06:03.611Z,10.18
2023-01-18T09:08:31.640Z,9.63
2023-01-18T09:11:06.633Z,10.43
2023-01-18T09:13:34.701Z,9.68
2023-01-18T09:16:07.736Z,9.93
2023-01-18T09:18:35.238Z,9.02
2023-01-18T09:21:11.665Z,9.30
2023-01-18T09:23:40.123Z,9.63
2023-01-18T09:26:08.966Z,10.07
2023-01-18T09:28:36.292Z,9.60
2023-01-18T09:31:05.434Z,9.85
2023-01-18T09:33:37.413Z,11.85
2023-01-18T09:36:07.960Z,10.80
2023-01-18T09:38:36.127Z,10.05
2023-01-18T09:41:06.652Z,9.20
2023-01-18T09:43:43.034Z,10.27
2023-01-18T09:46:21.608Z,10.23
2023-01-18T09:49:00.670Z,10.55
2023-01-18T09:51:33.507Z,10.57
2023-01-18T09:54:18.520Z,10.35
2023-01-18T09:56:50.039Z,10.07
2023-01-18T09:59:25.473Z,11.65
2023-01-18T10:01:54.357Z,9.57
2023-01-18T10:04:36.287Z,9.47
2023-01-18T10:07:08.586Z,10.38
2023-01-18T10:09:46.184Z,10.18
2023-01-18T10:12:31.760Z,10.13
2023-01-18T10:15:31.887Z,9.07
2023-01-18T10:18:00.704Z,9.63
2023-01-18T10:20:34.004Z,9.98
2023-01-18T10:23:16.600Z,9.25
2023-01-18T10:25:55.400Z,9.70
2023-01-18T10:28:59.706Z,9.85
2023-01-18T10:31:48.548Z,9.85
2023-01-18T10:34:24.153Z,10.50
2023-01-18T10:37:04.472Z,11.70
2023-01-18T10:39:38.200Z,11.93
2023-01-18T10:42:17.535Z,11.07
2023-01-18T10:44:45.101Z,11.95
2023-01-18T10:47:12.153Z,12.65
2023-01-18T10:49:42.028Z,12.45
2023-01-18T10:52:24.540Z,12.07
2023-01-18T10:55:07.403Z,11.63
2023-01-18T10:57:43.420Z,12.38
2023-01-18T11:00:34.737Z,12.13
2023-01-18T11:03:05.208Z,11.25
2023-01-18T11:05:40.033Z,11.85
2023-01-18T11:08:32.914Z,12.15
2023-01-18T11:11:03.135Z,11.80
2023-01-18T11:13:39.024Z,13.98
2023-01-18T11:16:20.901Z,14.65
2023-01-18T11:18:59.854Z,18.40
2023-01-18T11:21:33.223Z,18.63
2023-01-18T11:24:07.762Z,13.63
2023-01-18T11:26:34.690Z,12.77
2023-01-18T11:29:12.758Z,14.63
2023-01-18T11:31:50.421Z,13.30
2023-01-18T11:34:28.752Z,12.38
2023-01-18T11:36:57.033Z,10.68
2023-01-18T11:39:28.470Z,13.13
2023-01-18T11:44:48.467Z,11.63
2023-01-18T11:47:23.408Z,13.65
2023-01-18T11:50:22.492Z,13.75
2023-01-18T11:52:51.125Z,13.25
2023-01-18T11:55:38.339Z,11.90
2023-01-18T11:58:16.961Z,12.95
2023-01-18T12:00:56.755Z,12.05
2023-01-18T12:03:45.349Z,11.23
2023-01-18T12:06:44.068Z,11.38
2023-01-18T12:09:54.133Z,11.88
2023-01-18T12:12:42.546Z,10.50
2023-01-18T12:15:41.954Z,9.75
2023-01-18T12:18:42.464Z,9.18
2023-01-18T12:21:24.014Z,10.48
2023-01-18T12:26:46.746Z,8.95
2023-01-18T12:29:20.389Z,8.48
2023-01-18T12:32:14.194Z,10.48
2023-01-18T12:34:42.132Z,10.43
2023-01-18T12:37:23.972Z,13.88
2023-01-18T12:39:54.118Z,10.45
2023-01-18T12:42:52.320Z,11.60
2023-01-18T12:45:41.665Z,9.75
2023-01-18T12:48:13.004Z,14.63
2023-01-18T12:50:42.508Z,12.20
2023-01-18T12:53:18.327Z,11.77
2023-01-18T12:55:49.512Z,11.07
2023-01-18T12:58:22.642Z,9.27
2023-01-18T13:00:54.662Z,10.52
2023-01-18T13:03:28.366Z,9.50
2023-01-18T13:05:59.322Z,8.80
2023-01-18T13:08:44.867Z,8.65
2023-01-18T13:11:32.604Z,8.65
2023-01-18T13:14:11.381Z,9.95
2023-01-18T13:16:42.249Z,11.05
2023-01-18T13:19:13.820Z,8.85
2023-01-18T13:21:52.222Z,9.10
2023-01-18T13:24:36.505Z,8.80
2023-01-18T13:27:11.730Z,8.82
2023-01-18T13:29:39.462Z,8.85
2023-01-18T13:32:33.210Z,8.38
2023-01-18T13:35:22.632Z,8.30
2023-01-18T13:37:56.429Z,7.78
2023-01-18T13:40:43.763Z,8.10
2023-01-18T13:43:30.521Z,8.43
2023-01-18T13:46:08.133Z,7.72
2023-01-18T13:48:57.668Z,7.32
2023-01-18T13:51:39.580Z,7.68
2023-01-18T13:54:29.404Z,7.55
2023-01-18T13:57:04.365Z,6.80
2023-01-18T13:59:38.220Z,7.00
2023-01-18T14:02:20.123Z,6.63
2023-01-18T14:05:08.985Z,6.32
2023-01-18T14:07:48.167Z,5.60
2023-01-18T14:10:37.097Z,5.32
2023-01-18T14:13:06.622Z,5.85
2023-01-18T14:15:42.150Z,6.07
2023-01-18T14:18:33.035Z,5.82
2023-01-18T14:21:06.235Z,5.80
2023-01-18T14:24:00.151Z,5.65
2023-01-18T14:26:31.873Z,6.88
2023-01-18T14:29:11.234Z,6.57
2023-01-18T14:31:42.706Z,6.10
2023-01-18T14:36:55.279Z,5.05
2023-01-18T14:39:22.757Z,5.63
2023-01-18T14:41:57.933Z,5.72
2023-01-18T14:44:28.840Z,5.65
2023-01-18T14:46:58.143Z,6.43
2023-01-18T14:49:31.568Z,7.05
2023-01-18T14:51:59.474Z,7.22
2023-01-18T14:54:26.285Z,6.38
2023-01-18T14:57:01.830Z,5.65
2023-01-18T14:59:31.158Z,6.65
2023-01-18T15:02:03.914Z,5.88
2023-01-18T15:04:39.355Z,6.50
2023-01-18T15:07:10.595Z,6.30
2023-01-18T15:09:39.756Z,5.38
2023-01-18T15:12:10.562Z,5.45
2023-01-18T15:14:43.871Z,6.03
2023-01-18T15:17:21.455Z,5.70
2023-01-18T15:20:06.955Z,4.68
2023-01-18T15:22:37.840Z,5.57
2023-01-18T15:25:07.479Z,4.82
2023-01-18T15:27:37.275Z,5.38
2023-01-18T15:30:12.864Z,5.80
2023-01-18T15:32:39.781Z,6.00
2023-01-18T15:35:09.685Z,5.82
2023-01-18T15:37:40.052Z,6.78
2023-01-18T15:40:12.592Z,5.80
2023-01-18T15:42:46.599Z,6.68
2023-01-18T15:45:20.728Z,7.03
2023-01-18T15:47:52.006Z,5.60
2023-01-18T15:50:20.745Z,6.50
2023-01-18T15:53:02.692Z,6.03
2023-01-18T15:55:50.161Z,7.97
2023-01-18T15:58:32.457Z,7.25
2023-01-18T16:01:02.740Z,7.85
2023-01-18T16:03:34.834Z,6.90
2023-01-18T16:06:11.909Z,7.70
2023-01-18T16:09:12.912Z,7.63
2023-01-18T16:11:49.909Z,7.38
2023-01-18T16:14:28.644Z,10.57
2023-01-18T16:16:58.071Z,11.68
2023-01-18T16:19:29.463Z,9.88
2023-01-18T16:22:26.980Z,9.50
2023-01-18T16:25:15.171Z,10.52
2023-01-18T16:27:51.417Z,8.60
2023-01-18T16:30:37.689Z,7.30
2023-01-18T16:33:15.900Z,8.93
2023-01-18T16:35:43.095Z,11.73
2023-01-18T16:38:12.232Z,11.77
2023-01-18T16:40:41.617Z,11.95
2023-01-18T16:43:18.274Z,9.48
2023-01-18T16:45:47.751Z,8.75
2023-01-18T16:48:17.172Z,9.80
2023-01-18T16:50:45.025Z,8.85
2023-01-18T16:53:12.420Z,8.90
2023-01-18T16:55:39.797Z,10.02
2023-01-18T16:58:06.768Z,9.48
2023-01-18T17:01:00.226Z,9.23
2023-01-18T17:03:28.901Z,9.07
2023-01-18T17:05:55.733Z,8.70
2023-01-18T17:08:22.814Z,8.90
2023-01-18T17:10:51.327Z,9.48
2023-01-18T17:13:18.298Z,9.50
2023-01-18T17:15:45.679Z,10.30
2023-01-18T17:18:25.793Z,10.10
2023-01-18T17:20:53.783Z,9.15
2023-01-18T17:23:21.327Z,9.32
2023-01-18T17:25:48.410Z,9.25
2023-01-18T17:28:17.911Z,10.23
2023-01-18T17:30:47.432Z,11.32
2023-01-18T17:33:20.497Z,10.48
2023-01-18T17:35:49.030Z,12.80
2023-01-18T17:38:23.309Z,10.40
2023-01-18T17:40:51.327Z,10.55
2023-01-18T17:43:28.439Z,12.32
2023-01-18T17:46:01.896Z,9.13
2023-01-18T17:48:29.060Z,9.35
2023-01-18T17:50:55.941Z,10.05
2023-01-18T17:53:22.745Z,9.45
2023-01-18T17:55:50.051Z,9.57
2023-01-18T17:58:16.810Z,8.95
2023-01-18T18:00:43.478Z,8.57
2023-01-18T18:03:10.404Z,9.73
2023-01-18T18:05:37.208Z,9.50
2023-01-18T18:08:04.139Z,9.02
2023-01-18T18:10:31.183Z,7.68
2023-01-18T18:12:58.421Z,8.52
2023-01-18T18:15:25.437Z,8.35
2023-01-18T18:17:52.323Z,8.38
2023-01-18T18:20:20.791Z,8.43
2023-01-18T18:22:48.783Z,7.70
2023-01-18T18:25:15.526Z,8.68
2023-01-18T18:27:46.461Z,7.85
2023-01-18T18:30:14.320Z,8.93
2023-01-18T18:32:40.972Z,9.10
2023-01-18T18:35:23.043Z,8.15
2023-01-18T18:37:51.788Z,8.45
2023-01-18T18:40:19.361Z,8.63
2023-01-18T18:42:59.925Z,9.48
2023-01-18T18:45:28.528Z,7.65
2023-01-18T18:47:55.407Z,7.35
2023-01-18T18:50:22.185Z,6.95
2023-01-18T18:52:48.822Z,7.72
2023-01-18T18:55:16.039Z,8.35
2023-01-18T18:57:42.709Z,6.82
2023-01-18T19:00:10.130Z,8.20
2023-01-18T19:02:37.802Z,6.63
2023-01-18T19:05:05.925Z,7.60
2023-01-18T19:07:34.850Z,7.70
2023-01-18T19:10:01.592Z,6.15
2023-01-18T19:12:28.376Z,6.82
2023-01-18T19:14:55.133Z,7.93
2023-01-18T19:17:30.217Z,7.32
2023-01-18T19:19:57.793Z,10.73
2023-01-18T19:22:24.525Z,8.63
2023-01-18T19:24:51.166Z,7.55
2023-01-18T19:27:17.853Z,6.82
2023-01-18T19:29:44.579Z,7.38
2023-01-18T19:32:11.301Z,7.57
2023-01-18T19:34:38.655Z,7.28
2023-01-18T19:37:08.233Z,6.95
2023-01-18T19:39:35.124Z,7.45
2023-01-18T19:42:02.662Z,7.88
2023-01-18T19:44:29.920Z,8.65
2023-01-18T19:46:57.139Z,7.97
2023-01-18T19:49:27.858Z,7.82
2023-01-18T19:51:54.940Z,7.35
2023-01-18T19:54:22.289Z,8.75
2023-01-18T19:56:49.657Z,9.65
2023-01-18T19:59:16.657Z,7.85
2023-01-18T20:01:43.750Z,8.82
2023-01-18T20:04:12.922Z,8.10
2023-01-18T20:06:40.096Z,8.07
2023-01-18T20:09:18.423Z,8.60
2023-01-18T20:11:46.087Z,7.68
2023-01-18T20:14:13.171Z,6.97
2023-01-18T20:16:40.063Z,6.68
2023-01-18T20:19:06.853Z,6.82
2023-01-18T20:21:33.606Z,8.27
2023-01-18T20:24:01.041Z,9.73
2023-01-18T20:26:36.460Z,9.32
2023-01-18T20:29:08.345Z,8.88
2023-01-18T20:31:36.539Z,10.20
2023-01-18T20:34:04.239Z,10.25
2023-01-18T20:36:31.098Z,10.10
2023-01-18T20:38:57.770Z,9.20
2023-01-18T20:41:24.566Z,9.00
2023-01-18T20:43:51.316Z,9.48
2023-01-18T20:46:18.194Z,9.35
2023-01-18T20:48:44.896Z,8.48
2023-01-18T20:51:11.676Z,7.82
2023-01-18T20:53:38.338Z,8.15
2023-01-18T20:56:23.465Z,7.85
2023-01-18T20:58:54.808Z,8.35
2023-01-18T21:01:21.741Z,7.50
2023-01-18T21:03:55.469Z,7.70
2023-01-18T21:06:22.311Z,7.78
2023-01-18T21:08:52.097Z,7.03
2023-01-18T21:11:22.826Z,7.38
2023-01-18T21:13:51.269Z,6.82
2023-01-18T21:16:18.295Z,6.78
2023-01-18T21:18:45.462Z,6.45
2023-01-18T21:21:12.981Z,6.15
2023-01-18T21:23:40.083Z,7.18
2023-01-18T21:26:08.675Z,6.28
2023-01-18T21:28:35.972Z,5.70
2023-01-18T21:31:02.835Z,6.22
2023-01-18T21:33:29.613Z,6.05
2023-01-18T21:36:02.847Z,7.03
2023-01-18T21:38:30.016Z,6.70
2023-01-18T21:40:56.662Z,7.07
2023-01-18T21:43:42.120Z,6.22
2023-01-18T21:46:11.077Z,6.68
2023-01-18T21:48:37.959Z,7.85
2023-01-18T21:51:24.386Z,6.75
2023-01-18T21:54:09.715Z,7.70
2023-01-18T21:56:37.145Z,7.45
2023-01-18T21:59:03.971Z,7.40
2023-01-18T22:01:38.633Z,8.48
2023-01-18T22:04:26.504Z,7.97
2023-01-18T22:06:54.067Z,8.02
2023-01-18T22:09:21.226Z,7.72
2023-01-18T22:11:48.130Z,6.95
2023-01-18T22:14:15.045Z,6.93
2023-01-18T22:16:41.797Z,7.65
2023-01-18T22:19:11.021Z,7.32
2023-01-18T22:21:37.752Z,7.93
2023-01-18T22:24:05.064Z,7.93
2023-01-18T22:26:31.805Z,6.80
2023-01-18T22:29:01.537Z,6.10
2023-01-18T22:31:29.035Z,6.63
2023-01-18T22:33:56.627Z,6.10
2023-01-18T22:36:24.060Z,7.05
2023-01-18T22:38:50.968Z,6.90
2023-01-18T22:41:20.607Z,6.95
2023-01-18T22:43:47.537Z,6.78
2023-01-18T22:46:16.394Z,7.22
2023-01-18T22:48:44.207Z,6.63
2023-01-18T22:51:19.897Z,7.07
2023-01-18T22:53:46.574Z,8.30
2023-01-18T22:56:19.458Z,6.43
2023-01-18T22:58:47.045Z,7.80
2023-01-18T23:01:29.273Z,7.35
2023-01-18T23:03:58.154Z,6.72
2023-01-18T23:06:24.991Z,5.75
2023-01-18T23:08:52.124Z,7.05
2023-01-18T23:11:27.164Z,7.03
2023-01-18T23:14:19.049Z,7.78
2023-01-18T23:17:06.329Z,6.50
2023-01-18T23:19:33.542Z,6.95
2023-01-18T23:22:00.307Z,6.45
2023-01-18T23:24:27.377Z,6.72
2023-01-18T23:26:54.095Z,7.80
2023-01-18T23:29:20.810Z,7.38
2023-01-18T23:31:47.522Z,7.57
2023-01-18T23:34:14.441Z,8.13
2023-01-18T23:36:41.235Z,7.72
2023-01-18T23:39:26.419Z,6.63
2023-01-18T23:42:11.761Z,8.48
2023-01-18T23:44:56.976Z,7.60
2023-01-18T23:47:42.253Z,7.88
2023-01-18T23:50:28.020Z,6.25
2023-01-18T23:53:13.246Z,7.18
2023-01-18T23:55:41.432Z,6.60
2023-01-18T23:58:08.199Z,5.90
